Saint-Sauveur, France

5:01 PM CEST on October 01, 2014 (GMT +0200)
n/a | Change Station
CLOSE
Current Station
Personal Weather Station
Location: Challans, PAYS DE LA LOIRE
Elevation: 10 ft
Nearby Weather Stations

Elev 10 ft 46.85 °N, 1.90 °W | Updated 55 seconds ago

Clear
Clear
78.3 °F
Feels Like 79 °F
N
0.9
Wind Variable Wind from WNW
Gusts 0.9 mph

Today
High -- | Low -- °F
--% Chance of Precip.
Yesterday
High -- | Low -- °F
Precip. -- in
8:07 AM 7:49 PM
Waxing Crescent, 48% visible
Pressure 30.27 in
Visibility 6.2 miles
Clouds
Heat Index 79 °F
Dew Point 49 °F
Humidity 36%
Rainfall 0.00 in
Snow Depth Not available.
UV 0.0 out of 12
Pollen Not available.
Air Quality Not available.
Flu Activity Not available.
METAR LFRZ 301500Z AUTO 24009KT 9999 NSC 23/15 Q1025

More Conditions Fewer Conditions

Pressure 30.27 in
Visibility 6.2 miles
Clouds
Heat Index 79 °F
Dew Point 49 °F
Humidity 36%
Rainfall 0.00 in
Snow Depth Not available.
UV 0.0 out of 12
Pollen Not available.
Air Quality Not available.
Flu Activity Not available.
METAR LFRZ 301500Z AUTO 24009KT 9999 NSC 23/15 Q1025

More Conditions Fewer Conditions

10-Day Weather Forecast

Almanac

Astronomy

Oct. 01, 2014 Rise Set
Actual Time 8:07 AM CEST 7:49 PM CEST
Civil Twilight 7:37 AM CEST 8:19 PM CEST
Nautical Twilight 7:02 AM CEST 8:54 PM CEST
Astronomical Twilight 6:26 AM CEST 9:30 PM CEST
Moon 3:12 PM CEST No Moon Set
Length of Visible Light 12h 42m
Length of Day
11h 41m
Tomorrow will be 3m 18s shorter.
Waxing Crescent, 48% of the Moon is Illuminated
Today
Waxing Crescent
Oct 1
First Quarter
Oct 8
Full
Oct 15
Last Quarter
Oct 23
New

Today's Extremes

Country Highs Country Lows

Community

WunderPhotos

Upload Photos

1,757,962 photos uploaded!

Nearby

Snow Depth

Not available.

Earthquake Activity

City Distance Mag. Time & Date
No recent earthquake activity has been reported nearby.
Minimum magnitude displayed is 2.5.

Coastal Water Temperatures

Place Temperature
No Stations Reporting

Nearby Weather Stations